sensor_id;sensor_type;location;lat;lon;timestamp;P1;durP1;ratioP1;P2;durP2;ratioP2
25559;SDS011;13450;49.374;8.584;2023-02-24T00:01:16;13.05;;;5.28;;
25559;SDS011;13450;49.374;8.584;2023-02-24T00:03:51;14.07;;;5.32;;
25559;SDS011;13450;49.374;8.584;2023-02-24T00:06:20;13.80;;;5.88;;
25559;SDS011;13450;49.374;8.584;2023-02-24T00:11:18;15.10;;;6.03;;
25559;SDS011;13450;49.374;8.584;2023-02-24T00:13:48;15.98;;;6.15;;
25559;SDS011;13450;49.374;8.584;2023-02-24T00:16:14;19.98;;;7.35;;
25559;SDS011;13450;49.374;8.584;2023-02-24T00:18:42;21.98;;;7.63;;
25559;SDS011;13450;49.374;8.584;2023-02-24T00:21:10;17.60;;;6.05;;
25559;SDS011;13450;49.374;8.584;2023-02-24T00:23:42;22.38;;;6.82;;
25559;SDS011;13450;49.374;8.584;2023-02-24T00:28:37;16.85;;;6.28;;
25559;SDS011;13450;49.374;8.584;2023-02-24T00:31:07;14.02;;;5.50;;
25559;SDS011;13450;49.374;8.584;2023-02-24T00:33:35;21.25;;;7.13;;
25559;SDS011;13450;49.374;8.584;2023-02-24T00:36:05;17.70;;;6.43;;
25559;SDS011;13450;49.374;8.584;2023-02-24T00:38:32;17.25;;;6.57;;
25559;SDS011;13450;49.374;8.584;2023-02-24T00:41:00;20.73;;;7.57;;
25559;SDS011;13450;49.374;8.584;2023-02-24T00:43:34;18.88;;;7.07;;
25559;SDS011;13450;49.374;8.584;2023-02-24T00:46:01;18.15;;;6.18;;
25559;SDS011;13450;49.374;8.584;2023-02-24T00:48:35;17.80;;;6.90;;
25559;SDS011;13450;49.374;8.584;2023-02-24T00:51:05;22.00;;;7.97;;
25559;SDS011;13450;49.374;8.584;2023-02-24T00:53:32;16.27;;;5.72;;
25559;SDS011;13450;49.374;8.584;2023-02-24T00:55:58;20.25;;;7.20;;
25559;SDS011;13450;49.374;8.584;2023-02-24T00:58:25;24.08;;;7.97;;
25559;SDS011;13450;49.374;8.584;2023-02-24T01:00:54;18.27;;;6.70;;
25559;SDS011;13450;49.374;8.584;2023-02-24T01:03:21;17.58;;;6.45;;
25559;SDS011;13450;49.374;8.584;2023-02-24T01:05:52;15.43;;;5.53;;
25559;SDS011;13450;49.374;8.584;2023-02-24T01:08:20;15.23;;;5.35;;
25559;SDS011;13450;49.374;8.584;2023-02-24T01:10:54;19.83;;;7.50;;
25559;SDS011;13450;49.374;8.584;2023-02-24T01:13:42;20.13;;;6.50;;
25559;SDS011;13450;49.374;8.584;2023-02-24T01:16:14;20.35;;;6.53;;
25559;SDS011;13450;49.374;8.584;2023-02-24T01:18:45;17.92;;;5.82;;
25559;SDS011;13450;49.374;8.584;2023-02-24T01:21:18;18.10;;;6.28;;
25559;SDS011;13450;49.374;8.584;2023-02-24T01:23:46;20.50;;;7.20;;
25559;SDS011;13450;49.374;8.584;2023-02-24T01:26:13;18.98;;;6.03;;
25559;SDS011;13450;49.374;8.584;2023-02-24T01:28:40;11.57;;;4.88;;
25559;SDS011;13450;49.374;8.584;2023-02-24T01:31:05;23.15;;;7.13;;
25559;SDS011;13450;49.374;8.584;2023-02-24T01:33:32;16.67;;;5.20;;
25559;SDS011;13450;49.374;8.584;2023-02-24T01:38:33;16.25;;;5.32;;
25559;SDS011;13450;49.374;8.584;2023-02-24T01:41:01;16.77;;;5.30;;
25559;SDS011;13450;49.374;8.584;2023-02-24T01:43:29;15.02;;;5.00;;
25559;SDS011;13450;49.374;8.584;2023-02-24T01:46:18;16.55;;;5.30;;
25559;SDS011;13450;49.374;8.584;2023-02-24T01:48:47;23.83;;;7.18;;
25559;SDS011;13450;49.374;8.584;2023-02-24T01:51:15;17.98;;;5.85;;
25559;SDS011;13450;49.374;8.584;2023-02-24T01:53:41;22.55;;;7.70;;
25559;SDS011;13450;49.374;8.584;2023-02-24T01:56:07;22.80;;;6.93;;
25559;SDS011;13450;49.374;8.584;2023-02-24T01:58:37;16.63;;;5.53;;
25559;SDS011;13450;49.374;8.584;2023-02-24T02:01:04;22.35;;;7.05;;
25559;SDS011;13450;49.374;8.584;2023-02-24T02:03:34;23.60;;;6.40;;
25559;SDS011;13450;49.374;8.584;2023-02-24T02:06:05;20.83;;;6.43;;
25559;SDS011;13450;49.374;8.584;2023-02-24T02:08:37;19.60;;;5.95;;
25559;SDS011;13450;49.374;8.584;2023-02-24T02:11:06;25.15;;;7.45;;
25559;SDS011;13450;49.374;8.584;2023-02-24T02:13:35;20.52;;;6.60;;
25559;SDS011;13450;49.374;8.584;2023-02-24T02:18:51;17.55;;;5.55;;
25559;SDS011;13450;49.374;8.584;2023-02-24T02:27:01;19.83;;;5.55;;
25559;SDS011;13450;49.374;8.584;2023-02-24T02:43:55;24.10;;;7.75;;
25559;SDS011;13450;49.374;8.584;2023-02-24T02:46:33;25.55;;;7.40;;
25559;SDS011;13450;49.374;8.584;2023-02-24T02:49:23;24.15;;;7.15;;
25559;SDS011;13450;49.374;8.584;2023-02-24T02:52:11;24.55;;;6.95;;
25559;SDS011;13450;49.374;8.584;2023-02-24T02:54:46;21.80;;;6.15;;
25559;SDS011;13450;49.374;8.584;2023-02-24T02:57:23;24.25;;;6.88;;
25559;SDS011;13450;49.374;8.584;2023-02-24T02:59:54;22.02;;;6.75;;
25559;SDS011;13450;49.374;8.584;2023-02-24T03:02:36;23.40;;;6.50;;
25559;SDS011;13450;49.374;8.584;2023-02-24T03:05:06;23.13;;;6.28;;
25559;SDS011;13450;49.374;8.584;2023-02-24T03:07:36;17.40;;;5.75;;
25559;SDS011;13450;49.374;8.584;2023-02-24T03:10:14;21.25;;;6.60;;
25559;SDS011;13450;49.374;8.584;2023-02-24T03:15:17;20.77;;;6.18;;
25559;SDS011;13450;49.374;8.584;2023-02-24T03:17:45;21.73;;;6.53;;
25559;SDS011;13450;49.374;8.584;2023-02-24T03:20:22;25.65;;;7.55;;
25559;SDS011;13450;49.374;8.584;2023-02-24T03:23:53;26.25;;;6.90;;
25559;SDS011;13450;49.374;8.584;2023-02-24T03:34:05;28.00;;;7.18;;
25559;SDS011;13450;49.374;8.584;2023-02-24T03:36:39;25.83;;;7.03;;
25559;SDS011;13450;49.374;8.584;2023-02-24T03:39:04;19.90;;;5.97;;
25559;SDS011;13450;49.374;8.584;2023-02-24T03:41:37;21.17;;;5.93;;
25559;SDS011;13450;49.374;8.584;2023-02-24T03:44:07;21.50;;;6.20;;
25559;SDS011;13450;49.374;8.584;2023-02-24T03:46:35;20.08;;;6.22;;
25559;SDS011;13450;49.374;8.584;2023-02-24T03:49:10;24.77;;;7.00;;
25559;SDS011;13450;49.374;8.584;2023-02-24T03:51:36;25.15;;;7.40;;
25559;SDS011;13450;49.374;8.584;2023-02-24T04:02:40;18.10;;;5.85;;
25559;SDS011;13450;49.374;8.584;2023-02-24T04:05:10;22.92;;;7.00;;
25559;SDS011;13450;49.374;8.584;2023-02-24T04:07:40;22.98;;;6.63;;
25559;SDS011;13450;49.374;8.584;2023-02-24T04:13:32;19.25;;;6.18;;
25559;SDS011;13450;49.374;8.584;2023-02-24T04:16:08;20.77;;;5.68;;
25559;SDS011;13450;49.374;8.584;2023-02-24T04:18:41;17.75;;;5.57;;
25559;SDS011;13450;49.374;8.584;2023-02-24T04:21:12;22.80;;;5.88;;
25559;SDS011;13450;49.374;8.584;2023-02-24T04:23:41;19.10;;;5.27;;
25559;SDS011;13450;49.374;8.584;2023-02-24T04:26:09;24.85;;;7.22;;
25559;SDS011;13450;49.374;8.584;2023-02-24T04:28:39;18.73;;;5.13;;
25559;SDS011;13450;49.374;8.584;2023-02-24T04:31:07;22.55;;;6.35;;
25559;SDS011;13450;49.374;8.584;2023-02-24T04:33:41;25.77;;;6.57;;
25559;SDS011;13450;49.374;8.584;2023-02-24T04:36:09;18.02;;;5.70;;
25559;SDS011;13450;49.374;8.584;2023-02-24T04:38:38;16.17;;;5.43;;
25559;SDS011;13450;49.374;8.584;2023-02-24T04:41:04;18.95;;;5.47;;
25559;SDS011;13450;49.374;8.584;2023-02-24T04:43:31;20.67;;;5.43;;
25559;SDS011;13450;49.374;8.584;2023-02-24T04:45:57;21.02;;;6.15;;
25559;SDS011;13450;49.374;8.584;2023-02-24T04:48:24;20.92;;;6.00;;
25559;SDS011;13450;49.374;8.584;2023-02-24T04:50:50;15.88;;;4.88;;
25559;SDS011;13450;49.374;8.584;2023-02-24T04:53:19;10.47;;;2.90;;
25559;SDS011;13450;49.374;8.584;2023-02-24T04:55:51;14.65;;;4.32;;
25559;SDS011;13450;49.374;8.584;2023-02-24T04:58:19;21.88;;;6.22;;
25559;SDS011;13450;49.374;8.584;2023-02-24T05:00:52;15.50;;;4.20;;
25559;SDS011;13450;49.374;8.584;2023-02-24T05:03:20;13.85;;;4.78;;
25559;SDS011;13450;49.374;8.584;2023-02-24T05:05:50;26.25;;;6.72;;
25559;SDS011;13450;49.374;8.584;2023-02-24T05:08:20;17.75;;;5.07;;
25559;SDS011;13450;49.374;8.584;2023-02-24T05:10:47;22.95;;;6.00;;
25559;SDS011;13450;49.374;8.584;2023-02-24T05:13:15;15.13;;;5.00;;
25559;SDS011;13450;49.374;8.584;2023-02-24T05:15:43;22.98;;;6.03;;
25559;SDS011;13450;49.374;8.584;2023-02-24T05:18:11;19.42;;;4.78;;
25559;SDS011;13450;49.374;8.584;2023-02-24T05:20:45;14.88;;;4.50;;
25559;SDS011;13450;49.374;8.584;2023-02-24T05:23:35;24.80;;;7.55;;
25559;SDS011;13450;49.374;8.584;2023-02-24T05:26:04;25.92;;;7.28;;
25559;SDS011;13450;49.374;8.584;2023-02-24T05:28:35;20.48;;;5.82;;
25559;SDS011;13450;49.374;8.584;2023-02-24T05:33:32;24.08;;;6.18;;
25559;SDS011;13450;49.374;8.584;2023-02-24T05:36:01;15.35;;;4.50;;
25559;SDS011;13450;49.374;8.584;2023-02-24T05:38:28;15.95;;;4.50;;
25559;SDS011;13450;49.374;8.584;2023-02-24T05:40:53;16.75;;;5.15;;
25559;SDS011;13450;49.374;8.584;2023-02-24T05:43:29;21.77;;;5.75;;
25559;SDS011;13450;49.374;8.584;2023-02-24T05:45:59;26.92;;;7.55;;
25559;SDS011;13450;49.374;8.584;2023-02-24T05:48:28;23.48;;;6.65;;
25559;SDS011;13450;49.374;8.584;2023-02-24T05:50:59;21.67;;;6.05;;
25559;SDS011;13450;49.374;8.584;2023-02-24T05:53:28;23.65;;;6.25;;
25559;SDS011;13450;49.374;8.584;2023-02-24T05:55:53;18.60;;;4.97;;
25559;SDS011;13450;49.374;8.584;2023-02-24T05:58:19;17.33;;;5.30;;
25559;SDS011;13450;49.374;8.584;2023-02-24T06:00:44;17.98;;;4.95;;
25559;SDS011;13450;49.374;8.584;2023-02-24T06:03:10;17.50;;;5.93;;
25559;SDS011;13450;49.374;8.584;2023-02-24T06:05:51;13.20;;;3.72;;
25559;SDS011;13450;49.374;8.584;2023-02-24T06:08:18;23.20;;;6.10;;
25559;SDS011;13450;49.374;8.584;2023-02-24T06:10:44;20.40;;;5.55;;
25559;SDS011;13450;49.374;8.584;2023-02-24T06:13:11;23.25;;;6.47;;
25559;SDS011;13450;49.374;8.584;2023-02-24T06:15:37;29.02;;;7.07;;
25559;SDS011;13450;49.374;8.584;2023-02-24T06:18:03;33.88;;;7.60;;
25559;SDS011;13450;49.374;8.584;2023-02-24T06:20:28;20.40;;;5.50;;
25559;SDS011;13450;49.374;8.584;2023-02-24T06:22:57;27.08;;;6.40;;
25559;SDS011;13450;49.374;8.584;2023-02-24T06:25:24;17.02;;;5.43;;
25559;SDS011;13450;49.374;8.584;2023-02-24T06:27:51;15.05;;;4.72;;
25559;SDS011;13450;49.374;8.584;2023-02-24T06:30:19;16.45;;;3.90;;
25559;SDS011;13450;49.374;8.584;2023-02-24T06:32:46;26.20;;;6.53;;
25559;SDS011;13450;49.374;8.584;2023-02-24T06:35:12;24.02;;;6.60;;
25559;SDS011;13450;49.374;8.584;2023-02-24T06:37:38;25.75;;;7.13;;
25559;SDS011;13450;49.374;8.584;2023-02-24T06:40:05;15.88;;;4.25;;
25559;SDS011;13450;49.374;8.584;2023-02-24T06:42:54;16.67;;;4.75;;
25559;SDS011;13450;49.374;8.584;2023-02-24T06:45:20;14.52;;;4.47;;
25559;SDS011;13450;49.374;8.584;2023-02-24T06:47:48;27.15;;;7.55;;
25559;SDS011;13450;49.374;8.584;2023-02-24T06:50:17;25.75;;;6.53;;
25559;SDS011;13450;49.374;8.584;2023-02-24T06:52:46;22.02;;;6.63;;
25559;SDS011;13450;49.374;8.584;2023-02-24T06:55:13;27.42;;;7.15;;
25559;SDS011;13450;49.374;8.584;2023-02-24T06:58:00;24.50;;;6.57;;
25559;SDS011;13450;49.374;8.584;2023-02-24T07:00:30;19.67;;;5.35;;
25559;SDS011;13450;49.374;8.584;2023-02-24T07:03:06;18.20;;;4.97;;
25559;SDS011;13450;49.374;8.584;2023-02-24T07:05:45;19.38;;;5.68;;
25559;SDS011;13450;49.374;8.584;2023-02-24T07:08:21;23.98;;;6.28;;
25559;SDS011;13450;49.374;8.584;2023-02-24T07:10:54;19.45;;;5.78;;
25559;SDS011;13450;49.374;8.584;2023-02-24T07:13:22;20.17;;;5.43;;
25559;SDS011;13450;49.374;8.584;2023-02-24T07:15:49;24.05;;;5.85;;
25559;SDS011;13450;49.374;8.584;2023-02-24T07:18:17;28.20;;;7.90;;
25559;SDS011;13450;49.374;8.584;2023-02-24T07:20:44;20.10;;;6.53;;
25559;SDS011;13450;49.374;8.584;2023-02-24T07:23:16;20.77;;;6.00;;
25559;SDS011;13450;49.374;8.584;2023-02-24T07:25:42;16.33;;;4.65;;
25559;SDS011;13450;49.374;8.584;2023-02-24T07:28:10;23.27;;;6.90;;
25559;SDS011;13450;49.374;8.584;2023-02-24T07:30:39;25.65;;;6.53;;
25559;SDS011;13450;49.374;8.584;2023-02-24T07:33:06;23.40;;;6.20;;
25559;SDS011;13450;49.374;8.584;2023-02-24T07:35:32;25.95;;;6.47;;
25559;SDS011;13450;49.374;8.584;2023-02-24T07:38:04;23.85;;;7.15;;
25559;SDS011;13450;49.374;8.584;2023-02-24T07:40:31;27.42;;;7.55;;
25559;SDS011;13450;49.374;8.584;2023-02-24T07:42:58;24.98;;;7.20;;
25559;SDS011;13450;49.374;8.584;2023-02-24T07:45:25;25.48;;;7.30;;
25559;SDS011;13450;49.374;8.584;2023-02-24T07:47:51;18.55;;;5.85;;
25559;SDS011;13450;49.374;8.584;2023-02-24T07:50:19;20.67;;;6.32;;
25559;SDS011;13450;49.374;8.584;2023-02-24T07:52:45;22.80;;;5.67;;
25559;SDS011;13450;49.374;8.584;2023-02-24T07:55:12;26.83;;;7.47;;
25559;SDS011;13450;49.374;8.584;2023-02-24T07:57:39;24.73;;;7.30;;
25559;SDS011;13450;49.374;8.584;2023-02-24T08:00:10;24.10;;;7.03;;
25559;SDS011;13450;49.374;8.584;2023-02-24T08:02:43;20.70;;;6.30;;
25559;SDS011;13450;49.374;8.584;2023-02-24T08:05:09;26.10;;;7.65;;
25559;SDS011;13450;49.374;8.584;2023-02-24T08:07:34;28.27;;;8.27;;
25559;SDS011;13450;49.374;8.584;2023-02-24T08:10:00;25.63;;;8.23;;
25559;SDS011;13450;49.374;8.584;2023-02-24T08:12:38;30.77;;;8.45;;
25559;SDS011;13450;49.374;8.584;2023-02-24T08:15:06;24.00;;;7.45;;
25559;SDS011;13450;49.374;8.584;2023-02-24T08:17:41;26.13;;;7.22;;
25559;SDS011;13450;49.374;8.584;2023-02-24T08:20:07;19.20;;;5.95;;
25559;SDS011;13450;49.374;8.584;2023-02-24T08:22:42;25.70;;;7.97;;
25559;SDS011;13450;49.374;8.584;2023-02-24T08:25:11;24.55;;;7.28;;
25559;SDS011;13450;49.374;8.584;2023-02-24T08:27:43;23.42;;;7.50;;
25559;SDS011;13450;49.374;8.584;2023-02-24T08:30:10;25.13;;;7.35;;
25559;SDS011;13450;49.374;8.584;2023-02-24T08:32:47;25.65;;;7.45;;
25559;SDS011;13450;49.374;8.584;2023-02-24T08:35:21;25.25;;;7.40;;
25559;SDS011;13450;49.374;8.584;2023-02-24T08:37:52;29.15;;;7.97;;
25559;SDS011;13450;49.374;8.584;2023-02-24T08:43:00;24.95;;;7.47;;
25559;SDS011;13450;49.374;8.584;2023-02-24T08:45:56;24.23;;;6.60;;
25559;SDS011;13450;49.374;8.584;2023-02-24T08:48:32;29.38;;;7.70;;
25559;SDS011;13450;49.374;8.584;2023-02-24T08:51:08;25.42;;;6.22;;
25559;SDS011;13450;49.374;8.584;2023-02-24T08:53:39;18.90;;;5.85;;
25559;SDS011;13450;49.374;8.584;2023-02-24T08:56:05;26.10;;;7.90;;
25559;SDS011;13450;49.374;8.584;2023-02-24T08:58:36;23.00;;;6.72;;
25559;SDS011;13450;49.374;8.584;2023-02-24T09:01:12;21.67;;;7.13;;
25559;SDS011;13450;49.374;8.584;2023-02-24T09:03:43;30.73;;;7.68;;
25559;SDS011;13450;49.374;8.584;2023-02-24T09:06:13;27.90;;;8.32;;
25559;SDS011;13450;49.374;8.584;2023-02-24T09:08:41;27.77;;;7.50;;
25559;SDS011;13450;49.374;8.584;2023-02-24T09:11:11;29.25;;;7.95;;
25559;SDS011;13450;49.374;8.584;2023-02-24T09:13:42;23.70;;;7.55;;
25559;SDS011;13450;49.374;8.584;2023-02-24T09:16:18;25.40;;;7.45;;
25559;SDS011;13450;49.374;8.584;2023-02-24T09:18:47;26.33;;;8.02;;
25559;SDS011;13450;49.374;8.584;2023-02-24T09:21:36;27.48;;;7.68;;
25559;SDS011;13450;49.374;8.584;2023-02-24T09:24:14;26.08;;;8.48;;
25559;SDS011;13450;49.374;8.584;2023-02-24T09:26:50;28.92;;;8.68;;
25559;SDS011;13450;49.374;8.584;2023-02-24T09:29:22;25.95;;;7.75;;
25559;SDS011;13450;49.374;8.584;2023-02-24T09:32:01;29.45;;;8.85;;
25559;SDS011;13450;49.374;8.584;2023-02-24T09:37:01;27.40;;;8.15;;
25559;SDS011;13450;49.374;8.584;2023-02-24T09:39:31;32.75;;;8.80;;
25559;SDS011;13450;49.374;8.584;2023-02-24T09:42:24;26.05;;;8.00;;
25559;SDS011;13450;49.374;8.584;2023-02-24T09:45:14;29.75;;;8.52;;
25559;SDS011;13450;49.374;8.584;2023-02-24T09:47:57;28.77;;;8.32;;
25559;SDS011;13450;49.374;8.584;2023-02-24T09:50:28;26.85;;;7.97;;
25559;SDS011;13450;49.374;8.584;2023-02-24T09:53:02;21.55;;;7.47;;
25559;SDS011;13450;49.374;8.584;2023-02-24T09:55:41;23.85;;;7.85;;
25559;SDS011;13450;49.374;8.584;2023-02-24T09:58:30;25.85;;;8.77;;
25559;SDS011;13450;49.374;8.584;2023-02-24T10:09:38;24.00;;;7.93;;
25559;SDS011;13450;49.374;8.584;2023-02-24T10:12:12;27.02;;;8.70;;
25559;SDS011;13450;49.374;8.584;2023-02-24T10:17:45;28.13;;;9.10;;
25559;SDS011;13450;49.374;8.584;2023-02-24T10:20:18;26.75;;;8.65;;
25559;SDS011;13450;49.374;8.584;2023-02-24T10:23:09;27.00;;;7.68;;
25559;SDS011;13450;49.374;8.584;2023-02-24T10:25:41;26.58;;;8.38;;
25559;SDS011;13450;49.374;8.584;2023-02-24T10:28:26;24.42;;;7.15;;
25559;SDS011;13450;49.374;8.584;2023-02-24T10:31:12;24.63;;;8.07;;
25559;SDS011;13450;49.374;8.584;2023-02-24T10:33:53;24.33;;;7.90;;
25559;SDS011;13450;49.374;8.584;2023-02-24T10:36:24;22.30;;;7.22;;
25559;SDS011;13450;49.374;8.584;2023-02-24T10:38:59;21.40;;;6.80;;
25559;SDS011;13450;49.374;8.584;2023-02-24T10:41:40;27.13;;;8.45;;
25559;SDS011;13450;49.374;8.584;2023-02-24T10:44:20;26.02;;;8.20;;
25559;SDS011;13450;49.374;8.584;2023-02-24T10:46:59;22.92;;;7.43;;
25559;SDS011;13450;49.374;8.584;2023-02-24T10:52:21;21.08;;;7.18;;
25559;SDS011;13450;49.374;8.584;2023-02-24T10:58:26;21.02;;;6.20;;
25559;SDS011;13450;49.374;8.584;2023-02-24T11:01:17;22.60;;;6.80;;
25559;SDS011;13450;49.374;8.584;2023-02-24T11:04:07;20.88;;;6.78;;
25559;SDS011;13450;49.374;8.584;2023-02-24T11:06:46;23.13;;;7.50;;
25559;SDS011;13450;49.374;8.584;2023-02-24T11:09:22;24.23;;;7.95;;
25559;SDS011;13450;49.374;8.584;2023-02-24T11:11:52;24.17;;;7.72;;
25559;SDS011;13450;49.374;8.584;2023-02-24T11:15:01;20.45;;;7.07;;
25559;SDS011;13450;49.374;8.584;2023-02-24T11:17:50;21.83;;;8.07;;
25559;SDS011;13450;49.374;8.584;2023-02-24T11:22:54;20.95;;;7.60;;
25559;SDS011;13450;49.374;8.584;2023-02-24T11:28:00;20.48;;;7.90;;
25559;SDS011;13450;49.374;8.584;2023-02-24T11:30:36;21.58;;;8.02;;
25559;SDS011;13450;49.374;8.584;2023-02-24T11:33:26;20.98;;;7.72;;
25559;SDS011;13450;49.374;8.584;2023-02-24T11:36:03;23.88;;;7.95;;
25559;SDS011;13450;49.374;8.584;2023-02-24T11:38:44;21.80;;;7.47;;
25559;SDS011;13450;49.374;8.584;2023-02-24T11:41:26;19.75;;;7.10;;
25559;SDS011;13450;49.374;8.584;2023-02-24T11:44:01;20.83;;;7.75;;
25559;SDS011;13450;49.374;8.584;2023-02-24T11:46:38;24.92;;;8.68;;
25559;SDS011;13450;49.374;8.584;2023-02-24T11:51:53;24.10;;;8.27;;
25559;SDS011;13450;49.374;8.584;2023-02-24T11:54:19;21.15;;;6.70;;
25559;SDS011;13450;49.374;8.584;2023-02-24T11:56:56;21.85;;;7.38;;
25559;SDS011;13450;49.374;8.584;2023-02-24T12:07:55;42.15;;;16.75;;
25559;SDS011;13450;49.374;8.584;2023-02-24T12:10:35;24.70;;;7.75;;
25559;SDS011;13450;49.374;8.584;2023-02-24T12:23:35;23.65;;;7.22;;
25559;SDS011;13450;49.374;8.584;2023-02-24T12:40:15;17.05;;;5.80;;
25559;SDS011;13450;49.374;8.584;2023-02-24T12:57:06;16.83;;;5.88;;
25559;SDS011;13450;49.374;8.584;2023-02-24T13:00:10;12.88;;;4.90;;
25559;SDS011;13450;49.374;8.584;2023-02-24T13:08:21;13.73;;;4.90;;
25559;SDS011;13450;49.374;8.584;2023-02-24T13:13:45;13.18;;;4.70;;
25559;SDS011;13450;49.374;8.584;2023-02-24T13:16:25;15.63;;;4.95;;
25559;SDS011;13450;49.374;8.584;2023-02-24T13:19:02;12.48;;;4.20;;
25559;SDS011;13450;49.374;8.584;2023-02-24T13:21:29;16.60;;;5.30;;
25559;SDS011;13450;49.374;8.584;2023-02-24T13:23:56;15.50;;;5.30;;
25559;SDS011;13450;49.374;8.584;2023-02-24T13:26:25;19.80;;;6.03;;
25559;SDS011;13450;49.374;8.584;2023-02-24T13:29:09;20.98;;;6.70;;
25559;SDS011;13450;49.374;8.584;2023-02-24T13:34:30;17.33;;;5.95;;
25559;SDS011;13450;49.374;8.584;2023-02-24T13:37:08;19.83;;;6.80;;
25559;SDS011;13450;49.374;8.584;2023-02-24T13:39:36;19.40;;;6.45;;
25559;SDS011;13450;49.374;8.584;2023-02-24T13:42:22;19.45;;;6.30;;
25559;SDS011;13450;49.374;8.584;2023-02-24T13:45:16;17.88;;;6.47;;
25559;SDS011;13450;49.374;8.584;2023-02-24T14:03:36;13.60;;;4.75;;
25559;SDS011;13450;49.374;8.584;2023-02-24T14:06:04;12.63;;;4.72;;
25559;SDS011;13450;49.374;8.584;2023-02-24T14:08:48;11.90;;;4.68;;
25559;SDS011;13450;49.374;8.584;2023-02-24T14:11:18;12.20;;;4.72;;
25559;SDS011;13450;49.374;8.584;2023-02-24T14:13:47;14.95;;;4.80;;
25559;SDS011;13450;49.374;8.584;2023-02-24T14:18:50;15.17;;;4.63;;
25559;SDS011;13450;49.374;8.584;2023-02-24T14:21:21;14.23;;;4.43;;
25559;SDS011;13450;49.374;8.584;2023-02-24T14:24:09;13.67;;;4.57;;
25559;SDS011;13450;49.374;8.584;2023-02-24T14:26:41;17.00;;;5.13;;
25559;SDS011;13450;49.374;8.584;2023-02-24T14:29:11;14.68;;;4.55;;
25559;SDS011;13450;49.374;8.584;2023-02-24T14:31:44;12.60;;;4.18;;
25559;SDS011;13450;49.374;8.584;2023-02-24T14:34:11;15.20;;;4.75;;
25559;SDS011;13450;49.374;8.584;2023-02-24T14:36:42;13.50;;;5.03;;
25559;SDS011;13450;49.374;8.584;2023-02-24T14:41:41;15.18;;;4.57;;
25559;SDS011;13450;49.374;8.584;2023-02-24T14:46:49;12.27;;;4.07;;
25559;SDS011;13450;49.374;8.584;2023-02-24T14:49:21;11.23;;;3.85;;
25559;SDS011;13450;49.374;8.584;2023-02-24T14:51:49;11.18;;;4.03;;
25559;SDS011;13450;49.374;8.584;2023-02-24T14:54:21;13.25;;;5.03;;
25559;SDS011;13450;49.374;8.584;2023-02-24T14:56:57;12.60;;;4.97;;
25559;SDS011;13450;49.374;8.584;2023-02-24T14:59:27;9.02;;;3.53;;
25559;SDS011;13450;49.374;8.584;2023-02-24T15:02:00;17.60;;;5.55;;
25559;SDS011;13450;49.374;8.584;2023-02-24T15:04:32;16.45;;;5.30;;
25559;SDS011;13450;49.374;8.584;2023-02-24T15:09:41;14.88;;;4.95;;
25559;SDS011;13450;49.374;8.584;2023-02-24T15:12:10;13.65;;;5.13;;
25559;SDS011;13450;49.374;8.584;2023-02-24T15:14:39;16.98;;;5.75;;
25559;SDS011;13450;49.374;8.584;2023-02-24T15:17:13;16.98;;;5.75;;
25559;SDS011;13450;49.374;8.584;2023-02-24T15:19:41;16.25;;;5.25;;
25559;SDS011;13450;49.374;8.584;2023-02-24T15:24:43;17.20;;;5.38;;
25559;SDS011;13450;49.374;8.584;2023-02-24T15:29:40;11.73;;;4.40;;
25559;SDS011;13450;49.374;8.584;2023-02-24T15:32:14;10.60;;;3.97;;
25559;SDS011;13450;49.374;8.584;2023-02-24T15:34:43;9.77;;;3.40;;
25559;SDS011;13450;49.374;8.584;2023-02-24T15:37:15;5.72;;;2.22;;
25559;SDS011;13450;49.374;8.584;2023-02-24T15:39:47;6.57;;;2.30;;
25559;SDS011;13450;49.374;8.584;2023-02-24T15:44:39;8.95;;;2.67;;
25559;SDS011;13450;49.374;8.584;2023-02-24T15:50:11;8.38;;;2.00;;
25559;SDS011;13450;49.374;8.584;2023-02-24T15:52:38;8.88;;;3.13;;
25559;SDS011;13450;49.374;8.584;2023-02-24T15:55:05;7.93;;;2.63;;
25559;SDS011;13450;49.374;8.584;2023-02-24T15:57:31;8.10;;;2.70;;
25559;SDS011;13450;49.374;8.584;2023-02-24T15:59:59;5.22;;;2.33;;
25559;SDS011;13450;49.374;8.584;2023-02-24T16:02:24;6.85;;;2.20;;
25559;SDS011;13450;49.374;8.584;2023-02-24T16:04:51;4.57;;;1.83;;
25559;SDS011;13450;49.374;8.584;2023-02-24T16:09:44;5.63;;;1.70;;
25559;SDS011;13450;49.374;8.584;2023-02-24T16:12:14;5.72;;;1.80;;
25559;SDS011;13450;49.374;8.584;2023-02-24T16:14:43;6.28;;;2.00;;
25559;SDS011;13450;49.374;8.584;2023-02-24T16:19:56;5.97;;;2.03;;
25559;SDS011;13450;49.374;8.584;2023-02-24T16:22:24;7.20;;;2.35;;
25559;SDS011;13450;49.374;8.584;2023-02-24T16:24:52;5.47;;;2.13;;
25559;SDS011;13450;49.374;8.584;2023-02-24T16:27:18;8.05;;;2.00;;
25559;SDS011;13450;49.374;8.584;2023-02-24T16:29:46;5.63;;;2.03;;
25559;SDS011;13450;49.374;8.584;2023-02-24T16:32:13;8.30;;;2.20;;
25559;SDS011;13450;49.374;8.584;2023-02-24T16:34:39;5.50;;;2.17;;
25559;SDS011;13450;49.374;8.584;2023-02-24T16:37:37;5.95;;;2.30;;
25559;SDS011;13450;49.374;8.584;2023-02-24T16:39:56;7.53;;;2.05;;
25559;SDS011;13450;49.374;8.584;2023-02-24T16:42:23;6.20;;;2.00;;
25559;SDS011;13450;49.374;8.584;2023-02-24T16:44:48;8.43;;;2.58;;
25559;SDS011;13450;49.374;8.584;2023-02-24T16:47:18;5.85;;;2.03;;
25559;SDS011;13450;49.374;8.584;2023-02-24T16:49:46;6.30;;;2.05;;
25559;SDS011;13450;49.374;8.584;2023-02-24T16:52:12;6.90;;;2.45;;
25559;SDS011;13450;49.374;8.584;2023-02-24T16:54:42;6.68;;;2.13;;
25559;SDS011;13450;49.374;8.584;2023-02-24T16:57:08;4.50;;;1.88;;
25559;SDS011;13450;49.374;8.584;2023-02-24T16:59:33;2.88;;;1.25;;
25559;SDS011;13450;49.374;8.584;2023-02-24T17:01:59;4.28;;;1.73;;
25559;SDS011;13450;49.374;8.584;2023-02-24T17:04:26;5.55;;;1.88;;
25559;SDS011;13450;49.374;8.584;2023-02-24T17:09:26;6.57;;;2.20;;
25559;SDS011;13450;49.374;8.584;2023-02-24T17:11:53;7.57;;;2.10;;
25559;SDS011;13450;49.374;8.584;2023-02-24T17:14:19;3.88;;;1.50;;
25559;SDS011;13450;49.374;8.584;2023-02-24T17:16:47;6.82;;;1.90;;
25559;SDS011;13450;49.374;8.584;2023-02-24T17:19:12;5.90;;;1.90;;
25559;SDS011;13450;49.374;8.584;2023-02-24T17:21:41;7.15;;;2.55;;
25559;SDS011;13450;49.374;8.584;2023-02-24T17:27:52;7.30;;;2.50;;
25559;SDS011;13450;49.374;8.584;2023-02-24T17:30:21;6.95;;;2.17;;
25559;SDS011;13450;49.374;8.584;2023-02-24T17:33:01;8.00;;;2.47;;
25559;SDS011;13450;49.374;8.584;2023-02-24T17:35:27;9.05;;;3.40;;
25559;SDS011;13450;49.374;8.584;2023-02-24T17:37:53;7.32;;;2.35;;
25559;SDS011;13450;49.374;8.584;2023-02-24T17:40:19;7.88;;;2.97;;
25559;SDS011;13450;49.374;8.584;2023-02-24T17:42:46;8.27;;;2.90;;
25559;SDS011;13450;49.374;8.584;2023-02-24T17:45:15;8.10;;;2.78;;
25559;SDS011;13450;49.374;8.584;2023-02-24T17:47:52;6.80;;;2.20;;
25559;SDS011;13450;49.374;8.584;2023-02-24T17:50:18;5.90;;;1.97;;
25559;SDS011;13450;49.374;8.584;2023-02-24T17:52:44;8.13;;;2.08;;
25559;SDS011;13450;49.374;8.584;2023-02-24T17:55:10;6.68;;;2.50;;
25559;SDS011;13450;49.374;8.584;2023-02-24T17:57:36;6.50;;;2.65;;
25559;SDS011;13450;49.374;8.584;2023-02-24T18:00:08;6.63;;;2.60;;
25559;SDS011;13450;49.374;8.584;2023-02-24T18:02:34;7.88;;;3.03;;
25559;SDS011;13450;49.374;8.584;2023-02-24T18:05:12;9.43;;;3.00;;
25559;SDS011;13450;49.374;8.584;2023-02-24T18:07:37;8.18;;;2.92;;
25559;SDS011;13450;49.374;8.584;2023-02-24T18:10:03;9.07;;;3.17;;
25559;SDS011;13450;49.374;8.584;2023-02-24T18:12:30;6.88;;;2.40;;
25559;SDS011;13450;49.374;8.584;2023-02-24T18:15:05;9.93;;;3.17;;